sensor_id;sensor_type;location;lat;lon;timestamp;temperature;humidity
71117;SHT31;58775;46.992;9.518;2023-02-26T00:00:34;2.53;71.37
71117;SHT31;58775;46.992;9.518;2023-02-26T00:02:38;2.49;71.94
71117;SHT31;58775;46.992;9.518;2023-02-26T00:04:39;2.30;70.95
71117;SHT31;58775;46.992;9.518;2023-02-26T00:06:41;2.25;73.10
71117;SHT31;58775;46.992;9.518;2023-02-26T00:08:52;2.32;71.53
71117;SHT31;58775;46.992;9.518;2023-02-26T00:10:53;2.40;71.64
71117;SHT31;58775;46.992;9.518;2023-02-26T00:12:54;2.32;72.60
71117;SHT31;58775;46.992;9.518;2023-02-26T00:14:56;2.29;72.64
71117;SHT31;58775;46.992;9.518;2023-02-26T00:19:25;2.39;72.16
71117;SHT31;58775;46.992;9.518;2023-02-26T00:21:27;2.52;70.41
71117;SHT31;58775;46.992;9.518;2023-02-26T00:23:29;2.36;72.86
71117;SHT31;58775;46.992;9.518;2023-02-26T00:25:30;2.35;73.62
71117;SHT31;58775;46.992;9.518;2023-02-26T00:27:31;2.29;74.22
71117;SHT31;58775;46.992;9.518;2023-02-26T00:29:32;2.50;75.11
71117;SHT31;58775;46.992;9.518;2023-02-26T00:31:33;2.40;76.73
71117;SHT31;58775;46.992;9.518;2023-02-26T00:33:35;2.28;77.48
71117;SHT31;58775;46.992;9.518;2023-02-26T00:35:36;2.21;79.38
71117;SHT31;58775;46.992;9.518;2023-02-26T00:38:01;1.86;80.72
71117;SHT31;58775;46.992;9.518;2023-02-26T00:42:07;1.46;81.59
71117;SHT31;58775;46.992;9.518;2023-02-26T00:44:09;1.61;81.39
71117;SHT31;58775;46.992;9.518;2023-02-26T00:46:41;1.23;82.65
71117;SHT31;58775;46.992;9.518;2023-02-26T00:50:59;0.88;84.66
71117;SHT31;58775;46.992;9.518;2023-02-26T00:55:06;0.58;86.29
71117;SHT31;58775;46.992;9.518;2023-02-26T00:57:07;0.45;88.13
71117;SHT31;58775;46.992;9.518;2023-02-26T00:59:08;0.47;88.48
71117;SHT31;58775;46.992;9.518;2023-02-26T01:01:09;0.25;89.72
71117;SHT31;58775;46.992;9.518;2023-02-26T01:03:10;0.42;88.99
71117;SHT31;58775;46.992;9.518;2023-02-26T01:05:12;0.49;86.78
71117;SHT31;58775;46.992;9.518;2023-02-26T01:07:14;0.41;88.10
71117;SHT31;58775;46.992;9.518;2023-02-26T01:09:33;0.15;88.58
71117;SHT31;58775;46.992;9.518;2023-02-26T01:11:35;0.24;88.34
71117;SHT31;58775;46.992;9.518;2023-02-26T01:13:36;0.14;89.03
71117;SHT31;58775;46.992;9.518;2023-02-26T01:15:38;0.00;90.19
71117;SHT31;58775;46.992;9.518;2023-02-26T01:19:51;-0.15;90.99
71117;SHT31;58775;46.992;9.518;2023-02-26T01:22:14;-0.30;92.24
71117;SHT31;58775;46.992;9.518;2023-02-26T01:24:19;-0.25;90.67
71117;SHT31;58775;46.992;9.518;2023-02-26T01:26:26;-0.27;90.64
71117;SHT31;58775;46.992;9.518;2023-02-26T01:28:28;-0.21;89.36
71117;SHT31;58775;46.992;9.518;2023-02-26T01:30:30;-0.11;87.75
71117;SHT31;58775;46.992;9.518;2023-02-26T01:32:43;-0.20;88.22
71117;SHT31;58775;46.992;9.518;2023-02-26T01:35:04;-0.15;86.93
71117;SHT31;58775;46.992;9.518;2023-02-26T01:39:46;-0.31;86.62
71117;SHT31;58775;46.992;9.518;2023-02-26T01:41:55;-0.31;85.30
71117;SHT31;58775;46.992;9.518;2023-02-26T01:49:13;-0.33;83.95
71117;SHT31;58775;46.992;9.518;2023-02-26T01:51:14;-0.27;84.81
71117;SHT31;58775;46.992;9.518;2023-02-26T01:53:19;-0.24;84.51
71117;SHT31;58775;46.992;9.518;2023-02-26T01:55:24;-0.20;83.43
71117;SHT31;58775;46.992;9.518;2023-02-26T01:57:25;-0.38;83.77
71117;SHT31;58775;46.992;9.518;2023-02-26T01:59:26;-0.42;83.45
71117;SHT31;58775;46.992;9.518;2023-02-26T02:01:27;-0.38;83.60
71117;SHT31;58775;46.992;9.518;2023-02-26T02:03:31;-0.40;82.54
71117;SHT31;58775;46.992;9.518;2023-02-26T02:05:40;-0.42;82.23
71117;SHT31;58775;46.992;9.518;2023-02-26T02:07:42;-0.44;81.87
71117;SHT31;58775;46.992;9.518;2023-02-26T02:09:44;-0.38;81.65
71117;SHT31;58775;46.992;9.518;2023-02-26T02:14:19;-0.37;81.83
71117;SHT31;58775;46.992;9.518;2023-02-26T02:19:19;-0.28;79.55
71117;SHT31;58775;46.992;9.518;2023-02-26T02:21:49;-0.30;79.47
71117;SHT31;58775;46.992;9.518;2023-02-26T02:27:07;-0.14;78.35
71117;SHT31;58775;46.992;9.518;2023-02-26T02:31:27;-0.25;77.35
71117;SHT31;58775;46.992;9.518;2023-02-26T02:33:33;-0.28;76.69
71117;SHT31;58775;46.992;9.518;2023-02-26T02:35:41;-0.23;77.10
71117;SHT31;58775;46.992;9.518;2023-02-26T02:37:55;-0.27;76.82
71117;SHT31;58775;46.992;9.518;2023-02-26T02:42:25;-0.18;75.27
71117;SHT31;58775;46.992;9.518;2023-02-26T02:44:28;-0.21;76.71
71117;SHT31;58775;46.992;9.518;2023-02-26T02:46:33;-0.27;76.42
71117;SHT31;58775;46.992;9.518;2023-02-26T02:48:49;-0.21;77.02
71117;SHT31;58775;46.992;9.518;2023-02-26T02:53:41;-0.15;74.42
71117;SHT31;58775;46.992;9.518;2023-02-26T02:55:49;0.00;74.27
71117;SHT31;58775;46.992;9.518;2023-02-26T02:58:04;-0.09;74.42
71117;SHT31;58775;46.992;9.518;2023-02-26T03:00:09;-0.09;74.36
71117;SHT31;58775;46.992;9.518;2023-02-26T03:02:12;-0.09;73.26
71117;SHT31;58775;46.992;9.518;2023-02-26T03:04:15;-0.10;74.88
71117;SHT31;58775;46.992;9.518;2023-02-26T03:06:17;-0.14;75.30
71117;SHT31;58775;46.992;9.518;2023-02-26T03:08:26;-0.31;75.47
71117;SHT31;58775;46.992;9.518;2023-02-26T03:10:27;-0.30;75.13
71117;SHT31;58775;46.992;9.518;2023-02-26T03:12:31;-0.18;75.06
71117;SHT31;58775;46.992;9.518;2023-02-26T03:14:32;-0.38;75.54
71117;SHT31;58775;46.992;9.518;2023-02-26T03:16:48;-0.40;76.45
71117;SHT31;58775;46.992;9.518;2023-02-26T03:19:30;-0.50;77.57
71117;SHT31;58775;46.992;9.518;2023-02-26T03:21:48;-0.45;77.15
71117;SHT31;58775;46.992;9.518;2023-02-26T03:24:14;-0.66;79.05
71117;SHT31;58775;46.992;9.518;2023-02-26T03:26:23;-0.69;79.45
71117;SHT31;58775;46.992;9.518;2023-02-26T03:28:30;-0.72;79.17
71117;SHT31;58775;46.992;9.518;2023-02-26T03:30:49;-0.61;78.77
71117;SHT31;58775;46.992;9.518;2023-02-26T03:35:38;-0.78;81.60
71117;SHT31;58775;46.992;9.518;2023-02-26T03:37:46;-0.79;81.47
71117;SHT31;58775;46.992;9.518;2023-02-26T03:39:53;-0.84;81.12
71117;SHT31;58775;46.992;9.518;2023-02-26T03:44:36;-0.93;81.85
71117;SHT31;58775;46.992;9.518;2023-02-26T03:46:43;-0.93;81.68
71117;SHT31;58775;46.992;9.518;2023-02-26T03:48:47;-1.02;81.15
71117;SHT31;58775;46.992;9.518;2023-02-26T03:50:52;-0.99;82.28
71117;SHT31;58775;46.992;9.518;2023-02-26T03:53:19;-1.03;83.27
71117;SHT31;58775;46.992;9.518;2023-02-26T03:55:37;-0.95;84.36
71117;SHT31;58775;46.992;9.518;2023-02-26T03:57:59;-1.07;83.76
71117;SHT31;58775;46.992;9.518;2023-02-26T04:00:12;-1.05;83.69
71117;SHT31;58775;46.992;9.518;2023-02-26T04:02:24;-1.00;84.08
71117;SHT31;58775;46.992;9.518;2023-02-26T04:04:44;-1.07;84.85
71117;SHT31;58775;46.992;9.518;2023-02-26T04:06:47;-1.09;84.69
71117;SHT31;58775;46.992;9.518;2023-02-26T04:08:49;-0.95;84.70
71117;SHT31;58775;46.992;9.518;2023-02-26T04:10:59;-1.06;84.32
71117;SHT31;58775;46.992;9.518;2023-02-26T04:13:03;-0.99;84.84
71117;SHT31;58775;46.992;9.518;2023-02-26T04:15:04;-1.09;84.90
71117;SHT31;58775;46.992;9.518;2023-02-26T04:17:06;-1.09;86.14
71117;SHT31;58775;46.992;9.518;2023-02-26T04:19:07;-1.00;86.17
71117;SHT31;58775;46.992;9.518;2023-02-26T04:21:17;-0.96;85.61
71117;SHT31;58775;46.992;9.518;2023-02-26T04:23:20;-1.07;85.92
71117;SHT31;58775;46.992;9.518;2023-02-26T04:25:21;-1.17;85.94
71117;SHT31;58775;46.992;9.518;2023-02-26T04:27:22;-1.15;85.09
71117;SHT31;58775;46.992;9.518;2023-02-26T04:29:23;-1.25;84.97
71117;SHT31;58775;46.992;9.518;2023-02-26T04:31:25;-1.32;84.74
71117;SHT31;58775;46.992;9.518;2023-02-26T04:33:26;-1.30;83.62
71117;SHT31;58775;46.992;9.518;2023-02-26T04:35:27;-1.25;83.32
71117;SHT31;58775;46.992;9.518;2023-02-26T04:37:30;-1.23;82.08
71117;SHT31;58775;46.992;9.518;2023-02-26T04:39:31;-1.12;81.58
71117;SHT31;58775;46.992;9.518;2023-02-26T04:41:32;-1.17;80.94
71117;SHT31;58775;46.992;9.518;2023-02-26T04:43:33;-1.17;80.29
71117;SHT31;58775;46.992;9.518;2023-02-26T04:45:57;-1.25;80.76
71117;SHT31;58775;46.992;9.518;2023-02-26T04:47:58;-1.20;81.66
71117;SHT31;58775;46.992;9.518;2023-02-26T04:50:00;-1.05;82.06
71117;SHT31;58775;46.992;9.518;2023-02-26T04:52:01;-1.09;82.57
71117;SHT31;58775;46.992;9.518;2023-02-26T04:54:03;-1.12;82.20
71117;SHT31;58775;46.992;9.518;2023-02-26T04:56:05;-1.12;82.56
71117;SHT31;58775;46.992;9.518;2023-02-26T04:58:08;-1.12;82.17
71117;SHT31;58775;46.992;9.518;2023-02-26T05:00:10;-1.02;82.09
71117;SHT31;58775;46.992;9.518;2023-02-26T05:02:13;-1.06;81.74
71117;SHT31;58775;46.992;9.518;2023-02-26T05:04:18;-1.03;81.05
71117;SHT31;58775;46.992;9.518;2023-02-26T05:06:24;-0.99;80.40
71117;SHT31;58775;46.992;9.518;2023-02-26T05:08:26;-0.93;80.19
71117;SHT31;58775;46.992;9.518;2023-02-26T05:10:28;-1.06;78.47
71117;SHT31;58775;46.992;9.518;2023-02-26T05:12:28;-1.00;78.14
71117;SHT31;58775;46.992;9.518;2023-02-26T05:14:29;-0.97;77.95
71117;SHT31;58775;46.992;9.518;2023-02-26T05:16:32;-0.95;78.18
71117;SHT31;58775;46.992;9.518;2023-02-26T05:18:32;-0.85;76.80
71117;SHT31;58775;46.992;9.518;2023-02-26T05:20:33;-0.91;76.99
71117;SHT31;58775;46.992;9.518;2023-02-26T05:22:38;-0.91;76.61
71117;SHT31;58775;46.992;9.518;2023-02-26T05:24:39;-0.89;75.54
71117;SHT31;58775;46.992;9.518;2023-02-26T05:26:40;-0.66;75.14
71117;SHT31;58775;46.992;9.518;2023-02-26T05:28:41;-0.74;75.25
71117;SHT31;58775;46.992;9.518;2023-02-26T05:30:45;-0.60;74.36
71117;SHT31;58775;46.992;9.518;2023-02-26T05:32:46;-0.74;74.65
71117;SHT31;58775;46.992;9.518;2023-02-26T05:34:47;-0.68;75.98
71117;SHT31;58775;46.992;9.518;2023-02-26T05:36:48;-0.62;76.09
71117;SHT31;58775;46.992;9.518;2023-02-26T05:38:49;-0.86;76.66
71117;SHT31;58775;46.992;9.518;2023-02-26T05:40:50;-0.79;76.15
71117;SHT31;58775;46.992;9.518;2023-02-26T05:42:55;-0.79;76.85
71117;SHT31;58775;46.992;9.518;2023-02-26T05:44:56;-0.82;77.38
71117;SHT31;58775;46.992;9.518;2023-02-26T05:46:57;-0.74;76.04
71117;SHT31;58775;46.992;9.518;2023-02-26T05:48:58;-0.72;76.24
71117;SHT31;58775;46.992;9.518;2023-02-26T05:50:59;-0.92;77.16
71117;SHT31;58775;46.992;9.518;2023-02-26T05:53:00;-0.84;75.95
71117;SHT31;58775;46.992;9.518;2023-02-26T05:55:01;-0.72;77.27
71117;SHT31;58775;46.992;9.518;2023-02-26T05:57:02;-0.81;76.83
71117;SHT31;58775;46.992;9.518;2023-02-26T05:59:03;-0.65;76.66
71117;SHT31;58775;46.992;9.518;2023-02-26T06:01:04;-0.68;76.01
71117;SHT31;58775;46.992;9.518;2023-02-26T06:03:05;-0.81;75.05
71117;SHT31;58775;46.992;9.518;2023-02-26T06:05:07;-0.91;76.03
71117;SHT31;58775;46.992;9.518;2023-02-26T06:07:08;-0.97;75.66
71117;SHT31;58775;46.992;9.518;2023-02-26T06:09:09;-0.99;77.19
71117;SHT31;58775;46.992;9.518;2023-02-26T06:11:10;-1.05;77.03
71117;SHT31;58775;46.992;9.518;2023-02-26T06:13:12;-0.99;76.26
71117;SHT31;58775;46.992;9.518;2023-02-26T06:15:12;-0.95;76.89
71117;SHT31;58775;46.992;9.518;2023-02-26T06:17:13;-0.97;77.24
71117;SHT31;58775;46.992;9.518;2023-02-26T06:19:14;-0.91;77.25
71117;SHT31;58775;46.992;9.518;2023-02-26T06:21:16;-0.93;76.19
71117;SHT31;58775;46.992;9.518;2023-02-26T06:23:17;-1.00;76.77
71117;SHT31;58775;46.992;9.518;2023-02-26T06:25:18;-0.95;76.36
71117;SHT31;58775;46.992;9.518;2023-02-26T06:27:21;-1.02;77.15
71117;SHT31;58775;46.992;9.518;2023-02-26T06:29:23;-0.99;77.19
71117;SHT31;58775;46.992;9.518;2023-02-26T06:31:24;-1.05;76.79
71117;SHT31;58775;46.992;9.518;2023-02-26T06:33:25;-1.03;77.23
71117;SHT31;58775;46.992;9.518;2023-02-26T06:35:26;-1.06;77.31
71117;SHT31;58775;46.992;9.518;2023-02-26T06:37:30;-0.96;76.88
71117;SHT31;58775;46.992;9.518;2023-02-26T06:39:32;-1.12;77.54
71117;SHT31;58775;46.992;9.518;2023-02-26T06:41:33;-0.97;78.14
71117;SHT31;58775;46.992;9.518;2023-02-26T06:43:34;-0.96;78.73
71117;SHT31;58775;46.992;9.518;2023-02-26T06:45:35;-0.97;78.75
71117;SHT31;58775;46.992;9.518;2023-02-26T06:47:36;-0.88;77.68
71117;SHT31;58775;46.992;9.518;2023-02-26T06:49:37;-0.92;77.87
71117;SHT31;58775;46.992;9.518;2023-02-26T06:51:41;-0.95;77.76
71117;SHT31;58775;46.992;9.518;2023-02-26T06:53:42;-0.92;79.38
71117;SHT31;58775;46.992;9.518;2023-02-26T06:55:44;-0.89;77.16
71117;SHT31;58775;46.992;9.518;2023-02-26T06:57:46;-0.79;77.79
71117;SHT31;58775;46.992;9.518;2023-02-26T06:59:47;-0.79;78.17
71117;SHT31;58775;46.992;9.518;2023-02-26T07:01:48;-0.88;78.59
71117;SHT31;58775;46.992;9.518;2023-02-26T07:03:49;-0.96;78.32
71117;SHT31;58775;46.992;9.518;2023-02-26T07:05:50;-0.75;77.86
71117;SHT31;58775;46.992;9.518;2023-02-26T07:07:51;-0.58;76.86
71117;SHT31;58775;46.992;9.518;2023-02-26T07:09:52;-0.85;78.57
71117;SHT31;58775;46.992;9.518;2023-02-26T07:11:53;-0.86;78.21
71117;SHT31;58775;46.992;9.518;2023-02-26T07:13:54;-0.78;76.92
71117;SHT31;58775;46.992;9.518;2023-02-26T07:15:55;-0.68;77.86
71117;SHT31;58775;46.992;9.518;2023-02-26T07:17:56;-0.58;77.15
71117;SHT31;58775;46.992;9.518;2023-02-26T07:19:59;-0.52;76.79
71117;SHT31;58775;46.992;9.518;2023-02-26T07:22:05;-0.45;74.81
71117;SHT31;58775;46.992;9.518;2023-02-26T07:24:07;-0.28;75.21
71117;SHT31;58775;46.992;9.518;2023-02-26T07:26:08;-0.61;77.55
71117;SHT31;58775;46.992;9.518;2023-02-26T07:28:09;-0.50;77.32
71117;SHT31;58775;46.992;9.518;2023-02-26T07:30:11;-0.69;79.50
71117;SHT31;58775;46.992;9.518;2023-02-26T07:32:12;-0.78;80.07
71117;SHT31;58775;46.992;9.518;2023-02-26T07:34:13;-0.88;80.17
71117;SHT31;58775;46.992;9.518;2023-02-26T07:36:14;-0.91;80.58
71117;SHT31;58775;46.992;9.518;2023-02-26T07:38:15;-0.89;79.51
71117;SHT31;58775;46.992;9.518;2023-02-26T07:40:17;-0.71;77.99
71117;SHT31;58775;46.992;9.518;2023-02-26T07:42:18;-0.64;78.34
71117;SHT31;58775;46.992;9.518;2023-02-26T07:44:19;-0.57;78.18
71117;SHT31;58775;46.992;9.518;2023-02-26T07:46:20;-0.85;79.26
71117;SHT31;58775;46.992;9.518;2023-02-26T07:48:22;-0.76;78.38
71117;SHT31;58775;46.992;9.518;2023-02-26T07:50:23;-0.78;78.68
71117;SHT31;58775;46.992;9.518;2023-02-26T07:52:27;-0.60;79.11
71117;SHT31;58775;46.992;9.518;2023-02-26T07:54:30;-0.76;77.85
71117;SHT31;58775;46.992;9.518;2023-02-26T07:56:32;-1.00;79.47
71117;SHT31;58775;46.992;9.518;2023-02-26T07:58:34;-1.03;79.85
71117;SHT31;58775;46.992;9.518;2023-02-26T08:00:37;-0.74;78.85
71117;SHT31;58775;46.992;9.518;2023-02-26T08:02:38;-0.68;77.28
71117;SHT31;58775;46.992;9.518;2023-02-26T08:04:39;-0.82;77.13
71117;SHT31;58775;46.992;9.518;2023-02-26T08:06:42;-0.96;79.25
71117;SHT31;58775;46.992;9.518;2023-02-26T08:08:43;-1.09;78.20
71117;SHT31;58775;46.992;9.518;2023-02-26T08:10:44;-0.99;78.10
71117;SHT31;58775;46.992;9.518;2023-02-26T08:12:45;-0.93;78.02
71117;SHT31;58775;46.992;9.518;2023-02-26T08:14:45;-0.85;77.77
71117;SHT31;58775;46.992;9.518;2023-02-26T08:16:48;-0.65;77.99
71117;SHT31;58775;46.992;9.518;2023-02-26T08:18:49;-0.86;77.71
71117;SHT31;58775;46.992;9.518;2023-02-26T08:20:50;-0.93;77.91
71117;SHT31;58775;46.992;9.518;2023-02-26T08:22:52;-0.99;78.22
71117;SHT31;58775;46.992;9.518;2023-02-26T08:24:53;-0.86;77.54
71117;SHT31;58775;46.992;9.518;2023-02-26T08:26:54;-0.58;77.56
71117;SHT31;58775;46.992;9.518;2023-02-26T08:28:56;-0.88;78.19
71117;SHT31;58775;46.992;9.518;2023-02-26T08:30:57;-0.92;78.07
71117;SHT31;58775;46.992;9.518;2023-02-26T08:32:58;-0.85;79.00
71117;SHT31;58775;46.992;9.518;2023-02-26T08:34:59;-1.00;78.35
71117;SHT31;58775;46.992;9.518;2023-02-26T08:37:00;-0.95;78.93
71117;SHT31;58775;46.992;9.518;2023-02-26T08:39:01;-0.85;77.79
71117;SHT31;58775;46.992;9.518;2023-02-26T08:41:03;-0.85;78.82
71117;SHT31;58775;46.992;9.518;2023-02-26T08:43:04;-0.82;75.90
71117;SHT31;58775;46.992;9.518;2023-02-26T08:45:06;-0.75;77.81
71117;SHT31;58775;46.992;9.518;2023-02-26T08:47:08;-0.50;76.02
71117;SHT31;58775;46.992;9.518;2023-02-26T08:49:09;-0.65;77.52
71117;SHT31;58775;46.992;9.518;2023-02-26T08:51:10;-0.50;75.40
71117;SHT31;58775;46.992;9.518;2023-02-26T08:53:11;-0.38;75.36
71117;SHT31;58775;46.992;9.518;2023-02-26T08:55:12;-0.13;75.84
71117;SHT31;58775;46.992;9.518;2023-02-26T08:57:13;-0.41;74.26
71117;SHT31;58775;46.992;9.518;2023-02-26T08:59:14;-0.47;72.89
71117;SHT31;58775;46.992;9.518;2023-02-26T09:01:15;-0.84;75.15
71117;SHT31;58775;46.992;9.518;2023-02-26T09:03:16;-0.51;75.20
71117;SHT31;58775;46.992;9.518;2023-02-26T09:05:17;-0.55;74.43
71117;SHT31;58775;46.992;9.518;2023-02-26T09:07:19;-0.78;75.39
71117;SHT31;58775;46.992;9.518;2023-02-26T09:09:20;-0.89;75.48
71117;SHT31;58775;46.992;9.518;2023-02-26T09:11:21;-0.86;74.24
71117;SHT31;58775;46.992;9.518;2023-02-26T09:13:22;-0.69;74.00
71117;SHT31;58775;46.992;9.518;2023-02-26T09:15:23;-0.65;74.07
71117;SHT31;58775;46.992;9.518;2023-02-26T09:17:24;-0.28;73.77
71117;SHT31;58775;46.992;9.518;2023-02-26T09:19:25;-0.64;74.04
71117;SHT31;58775;46.992;9.518;2023-02-26T09:21:26;-0.50;72.34
71117;SHT31;58775;46.992;9.518;2023-02-26T09:23:28;-0.64;72.62
71117;SHT31;58775;46.992;9.518;2023-02-26T09:25:28;-0.41;72.42
71117;SHT31;58775;46.992;9.518;2023-02-26T09:27:29;-0.47;72.00
71117;SHT31;58775;46.992;9.518;2023-02-26T09:29:30;-0.31;72.65
71117;SHT31;58775;46.992;9.518;2023-02-26T09:31:32;-0.27;71.45
71117;SHT31;58775;46.992;9.518;2023-02-26T09:33:33;-0.15;70.59
71117;SHT31;58775;46.992;9.518;2023-02-26T09:35:34;-0.34;73.77
71117;SHT31;58775;46.992;9.518;2023-02-26T09:37:35;-0.23;73.26
71117;SHT31;58775;46.992;9.518;2023-02-26T09:39:36;-0.41;72.78
71117;SHT31;58775;46.992;9.518;2023-02-26T09:41:41;-0.62;71.96
71117;SHT31;58775;46.992;9.518;2023-02-26T09:44:18;-0.41;71.34
71117;SHT31;58775;46.992;9.518;2023-02-26T09:46:50;-0.38;73.13
71117;SHT31;58775;46.992;9.518;2023-02-26T09:49:20;-0.41;74.42
71117;SHT31;58775;46.992;9.518;2023-02-26T09:51:21;-0.33;71.72
71117;SHT31;58775;46.992;9.518;2023-02-26T09:53:30;-0.17;71.18
71117;SHT31;58775;46.992;9.518;2023-02-26T09:55:43;-0.31;73.33
71117;SHT31;58775;46.992;9.518;2023-02-26T09:57:45;-0.07;72.82
71117;SHT31;58775;46.992;9.518;2023-02-26T09:59:48;-0.13;72.55
71117;SHT31;58775;46.992;9.518;2023-02-26T10:09:07;0.18;72.36
71117;SHT31;58775;46.992;9.518;2023-02-26T10:13:44;0.21;69.47
71117;SHT31;58775;46.992;9.518;2023-02-26T10:15:49;0.38;72.23
71117;SHT31;58775;46.992;9.518;2023-02-26T10:18:01;0.55;70.76
71117;SHT31;58775;46.992;9.518;2023-02-26T10:20:13;0.71;69.61
71117;SHT31;58775;46.992;9.518;2023-02-26T10:22:31;0.14;71.59
71117;SHT31;58775;46.992;9.518;2023-02-26T10:26:54;0.90;70.89
71117;SHT31;58775;46.992;9.518;2023-02-26T10:29:22;1.00;67.96
71117;SHT31;58775;46.992;9.518;2023-02-26T10:31:47;1.09;68.58
71117;SHT31;58775;46.992;9.518;2023-02-26T10:36:43;1.86;68.34
71117;SHT31;58775;46.992;9.518;2023-02-26T10:38:48;1.86;66.94
71117;SHT31;58775;46.992;9.518;2023-02-26T10:40:58;1.75;65.57
71117;SHT31;58775;46.992;9.518;2023-02-26T10:50:55;1.79;66.28
71117;SHT31;58775;46.992;9.518;2023-02-26T10:52:57;1.97;65.42
71117;SHT31;58775;46.992;9.518;2023-02-26T10:55:07;2.06;63.96
71117;SHT31;58775;46.992;9.518;2023-02-26T10:57:23;2.26;65.26
71117;SHT31;58775;46.992;9.518;2023-02-26T10:59:27;2.28;63.45
71117;SHT31;58775;46.992;9.518;2023-02-26T11:01:29;2.12;64.37
71117;SHT31;58775;46.992;9.518;2023-02-26T11:03:36;2.21;64.49
71117;SHT31;58775;46.992;9.518;2023-02-26T11:05:38;1.71;67.91
71117;SHT31;58775;46.992;9.518;2023-02-26T11:07:40;1.31;65.76
71117;SHT31;58775;46.992;9.518;2023-02-26T11:09:44;1.23;65.39
71117;SHT31;58775;46.992;9.518;2023-02-26T11:11:50;1.17;66.36
71117;SHT31;58775;46.992;9.518;2023-02-26T11:13:52;1.34;67.61
71117;SHT31;58775;46.992;9.518;2023-02-26T11:15:55;1.50;67.58
71117;SHT31;58775;46.992;9.518;2023-02-26T11:17:57;1.81;68.66
71117;SHT31;58775;46.992;9.518;2023-02-26T11:20:10;2.09;67.96
71117;SHT31;58775;46.992;9.518;2023-02-26T11:22:14;1.95;64.38
71117;SHT31;58775;46.992;9.518;2023-02-26T11:24:26;2.36;62.49
71117;SHT31;58775;46.992;9.518;2023-02-26T11:26:35;2.83;63.53
71117;SHT31;58775;46.992;9.518;2023-02-26T11:28:43;2.60;62.92
71117;SHT31;58775;46.992;9.518;2023-02-26T11:30:45;2.35;64.43
71117;SHT31;58775;46.992;9.518;2023-02-26T11:32:50;2.64;64.40
71117;SHT31;58775;46.992;9.518;2023-02-26T11:34:53;2.87;63.50
71117;SHT31;58775;46.992;9.518;2023-02-26T11:36:57;2.96;62.36
71117;SHT31;58775;46.992;9.518;2023-02-26T11:39:28;1.95;62.17
71117;SHT31;58775;46.992;9.518;2023-02-26T11:41:37;1.92;63.90
71117;SHT31;58775;46.992;9.518;2023-02-26T11:43:43;1.86;65.05
71117;SHT31;58775;46.992;9.518;2023-02-26T11:45:51;2.01;63.28
71117;SHT31;58775;46.992;9.518;2023-02-26T11:47:59;2.06;64.02
71117;SHT31;58775;46.992;9.518;2023-02-26T11:50:09;1.97;64.99
71117;SHT31;58775;46.992;9.518;2023-02-26T11:52:19;1.88;63.54
71117;SHT31;58775;46.992;9.518;2023-02-26T11:54:23;1.58;62.65
71117;SHT31;58775;46.992;9.518;2023-02-26T11:56:34;1.43;65.22
71117;SHT31;58775;46.992;9.518;2023-02-26T11:58:42;2.01;64.24
71117;SHT31;58775;46.992;9.518;2023-02-26T12:00:43;2.32;63.74
71117;SHT31;58775;46.992;9.518;2023-02-26T12:02:44;2.15;63.32
71117;SHT31;58775;46.992;9.518;2023-02-26T12:04:49;1.72;64.64
71117;SHT31;58775;46.992;9.518;2023-02-26T12:06:53;1.60;63.11
71117;SHT31;58775;46.992;9.518;2023-02-26T12:08:55;1.43;64.70
71117;SHT31;58775;46.992;9.518;2023-02-26T12:15:53;1.51;65.68
71117;SHT31;58775;46.992;9.518;2023-02-26T12:18:29;1.41;65.28
71117;SHT31;58775;46.992;9.518;2023-02-26T12:21:04;1.82;65.25
71117;SHT31;58775;46.992;9.518;2023-02-26T12:27:47;1.36;65.23
71117;SHT31;58775;46.992;9.518;2023-02-26T12:30:15;1.82;65.42
71117;SHT31;58775;46.992;9.518;2023-02-26T12:34:59;1.70;66.13
71117;SHT31;58775;46.992;9.518;2023-02-26T12:37:21;1.34;65.03
71117;SHT31;58775;46.992;9.518;2023-02-26T12:47:26;1.19;67.01
71117;SHT31;58775;46.992;9.518;2023-02-26T12:51:49;1.58;66.65
71117;SHT31;58775;46.992;9.518;2023-02-26T12:54:03;1.72;66.50
71117;SHT31;58775;46.992;9.518;2023-02-26T13:01:07;1.51;66.17
71117;SHT31;58775;46.992;9.518;2023-02-26T13:04:12;1.55;65.86
71117;SHT31;58775;46.992;9.518;2023-02-26T13:08:34;0.78;68.92
71117;SHT31;58775;46.992;9.518;2023-02-26T13:11:01;0.83;69.35
71117;SHT31;58775;46.992;9.518;2023-02-26T13:20:03;1.44;67.43
71117;SHT31;58775;46.992;9.518;2023-02-26T13:22:36;1.02;67.87
71117;SHT31;58775;46.992;9.518;2023-02-26T13:27:27;1.39;65.38
71117;SHT31;58775;46.992;9.518;2023-02-26T13:29:41;1.47;66.37
71117;SHT31;58775;46.992;9.518;2023-02-26T13:32:22;1.29;67.15
71117;SHT31;58775;46.992;9.518;2023-02-26T13:37:00;0.99;66.08
71117;SHT31;58775;46.992;9.518;2023-02-26T13:41:18;0.78;67.14
71117;SHT31;58775;46.992;9.518;2023-02-26T13:48:15;0.93;67.70
71117;SHT31;58775;46.992;9.518;2023-02-26T13:55:43;0.71;67.44
71117;SHT31;58775;46.992;9.518;2023-02-26T13:57:51;0.85;66.47
71117;SHT31;58775;46.992;9.518;2023-02-26T14:00:09;0.71;67.95
71117;SHT31;58775;46.992;9.518;2023-02-26T14:02:56;0.55;65.86
71117;SHT31;58775;46.992;9.518;2023-02-26T14:04:59;0.62;66.81
71117;SHT31;58775;46.992;9.518;2023-02-26T14:11:44;0.82;65.38
71117;SHT31;58775;46.992;9.518;2023-02-26T14:18:40;0.96;66.42
71117;SHT31;58775;46.992;9.518;2023-02-26T14:20:50;1.10;66.61
71117;SHT31;58775;46.992;9.518;2023-02-26T14:25:34;1.06;66.45
71117;SHT31;58775;46.992;9.518;2023-02-26T14:27:39;0.88;67.13
71117;SHT31;58775;46.992;9.518;2023-02-26T14:32:05;0.78;65.80
71117;SHT31;58775;46.992;9.518;2023-02-26T14:34:20;0.85;67.30
71117;SHT31;58775;46.992;9.518;2023-02-26T14:36:36;0.65;65.64
71117;SHT31;58775;46.992;9.518;2023-02-26T14:38:41;0.55;67.24
71117;SHT31;58775;46.992;9.518;2023-02-26T14:41:11;0.81;66.78
71117;SHT31;58775;46.992;9.518;2023-02-26T14:43:24;0.78;67.12
71117;SHT31;58775;46.992;9.518;2023-02-26T14:45:37;0.76;66.46
71117;SHT31;58775;46.992;9.518;2023-02-26T14:47:39;0.82;65.73
71117;SHT31;58775;46.992;9.518;2023-02-26T14:49:43;1.03;64.46
71117;SHT31;58775;46.992;9.518;2023-02-26T14:57:09;0.89;65.46
71117;SHT31;58775;46.992;9.518;2023-02-26T14:59:38;0.89;65.77
71117;SHT31;58775;46.992;9.518;2023-02-26T15:09:02;0.83;66.45
71117;SHT31;58775;46.992;9.518;2023-02-26T15:15:56;0.85;63.51
71117;SHT31;58775;46.992;9.518;2023-02-26T15:25:39;0.65;64.21
71117;SHT31;58775;46.992;9.518;2023-02-26T15:27:41;0.59;65.56
71117;SHT31;58775;46.992;9.518;2023-02-26T15:29:43;0.68;65.04
71117;SHT31;58775;46.992;9.518;2023-02-26T15:32:22;0.65;64.23
71117;SHT31;58775;46.992;9.518;2023-02-26T15:34:32;0.57;65.34
71117;SHT31;58775;46.992;9.518;2023-02-26T15:36:33;0.65;65.08
71117;SHT31;58775;46.992;9.518;2023-02-26T15:38:45;0.52;64.85
71117;SHT31;58775;46.992;9.518;2023-02-26T15:40:48;0.48;65.59
71117;SHT31;58775;46.992;9.518;2023-02-26T15:42:53;0.45;64.96
71117;SHT31;58775;46.992;9.518;2023-02-26T15:44:56;0.34;64.90
71117;SHT31;58775;46.992;9.518;2023-02-26T15:47:02;0.41;65.41
71117;SHT31;58775;46.992;9.518;2023-02-26T15:49:08;0.40;66.55
71117;SHT31;58775;46.992;9.518;2023-02-26T15:51:13;0.32;64.79
71117;SHT31;58775;46.992;9.518;2023-02-26T15:53:27;0.38;67.46
71117;SHT31;58775;46.992;9.518;2023-02-26T15:55:34;0.44;65.37
71117;SHT31;58775;46.992;9.518;2023-02-26T15:57:36;0.47;64.41